Terminal Aerodrome Forecast
Issued by NWS Cleveland, OH

Home | Current Version | Previous Version | Text Only | Print | Product List | Glossary On
Versions: 1 2 3 4 5 6 7 8 9 10 11 12 13 14 15 16 17 18 19 20 21 22 23 24 25 26 27
000
FTUS41 KCLE 251732
TAFCLE
TAF
KCLE 251732Z 2518/2624 08007KT P6SM SKC
     FM260500 16010KT P6SM SCT040 BKN250
     FM261100 19010KT P6SM VCSH OVC035
     FM261600 26012G20KT 5SM -SHRA SCT015 OVC030
     FM262200 24010KT P6SM SCT030 BKN120=

USA.gov is the U.S. government's official web portal to all federal, state and local government web resources and services.